Airfield :
LOGIN :

Register | Disclaimer

   EN    FR    IT 

 










Legend :    VFR   Marginal VFR   IFR   Intensive IFR   Very Intensive IFR
Visi :
Ceiling :
>= 8 km
>= 3000ft
5 to 8 km
1000 to 3000 ft
1500m to 5 km
500 to 1000 ft
800 to 1500m
200 to 500 ft
< 800m
< 200 ft
Symbols :   Thunderstorms  Fog  Heavy snow  Heavy precipitations  Wind > 20 kt
SIGMETs :     Misc.  Thunderstorms  Icing  Turbulence  Mountain Waves  Volcanic Ashes







- Airport Elevation : 616 ft
- IATA code : PUF
- Download approach charts


LFBP - Pau

CURRENT METAR :
  • 250330Z AUTO VRB03KT 4900 RA BR FEW006/// BKN022/// BKN031/// ///TCU 11/11 Q1002 TEMPO NSW

EXPIRED METARs :
  • 250300Z AUTO 34004KT 280V010 9999 -RA BKN028/// BKN035/// BKN048/// ///CB 11/11 Q1002 TEMPO 4000 -SHRA
  • 250230Z AUTO 30006KT 9999 3300 RA SCT034/// BKN043/// BKN058/// ///CB 11/10 Q1002 TEMPO 4000 -SHRA
  • 250200Z AUTO 35005KT 9999 -RA FEW058/// OVC076/// ///TCU 11/10 Q1000 TEMPO 24015G30KT 4000 -SHRA NSC
  • 250130Z AUTO 34003KT 280V050 9999 FEW066/// BKN078/// BKN092/// ///TCU 11/10 Q1000 TEMPO 24015G30KT 4000 -SHRA NSC
  • 250100Z AUTO 32003KT 230V030 9999 BKN078/// OVC098/// ///TCU 12/10 Q1000 TEMPO 24015G30KT BECMG NSC

TAF TAF LFBP
Valid from the 25 at 00:00 until the 26 at 00:00 UTC


242300Z 2500/2524 24008KT CAVOK
PROB30 2501/2503 24015G30KT
TEMPO 2503/2509 4000 -SHRA BKN050TCU
PROB30
TEMPO 2513/2524 24018G35KT 3000 SHRA BKN050TCU
No reported NOTAMs for that airfield.
2 SIGMETs reported for the Bordeaux FIR (LFBB) :
 
Severe mountain waves
LFBB SIGMET 2 VALID 250300/250700 LFPW
LFBB BORDEAUX FIR/UIR SEV MTW FCST WI N4245 E00230 - N4215 E00230 - N4230 E00045 - N4300 E00100 - N4245 E00230 SFC/FL370 STNR WKN=
Severe turbulence
LFBB SIGMET 1 VALID 250300/250700 LFPW
LFBB BORDEAUX FIR/UIR SEV TURB FCST WI N4630 E00300 - N4315 E00230 - N4330 E00130 - N4630 E00300 SFC/FL080 STNR WKN=



MET'MAP, your aeronautical weather chart ! - Copyright ORBIFLY December 2007 - Disclaimer

ORBIFLY MET'MAP TEAM :

Programming & Development : Alexandra Zaïnal
Concept & Development : Baudouin d'Aumeries
Co-Development & Prog : Marc-Olivier Méhu
Technical & hardware support : Manuel Goepfert

Contact : metmap@orbifly.com




SOURCES & CREDITS :

   NOAA